createdAt,value
2023-04-04T00:00:36.327Z,78.17
2023-04-04T00:03:03.654Z,77.51
2023-04-04T00:05:31.162Z,77.21
2023-04-04T00:07:58.452Z,76.91
2023-04-04T00:10:25.338Z,76.63
2023-04-04T00:12:52.262Z,76.55
2023-04-04T00:15:19.847Z,76.63
2023-04-04T00:17:46.890Z,76.40
2023-04-04T00:20:14.622Z,76.38
2023-04-04T00:22:41.595Z,76.15
2023-04-04T00:25:09.964Z,76.05
2023-04-04T00:27:37.102Z,76.11
2023-04-04T00:30:04.416Z,76.28
2023-04-04T00:32:31.540Z,76.10
2023-04-04T00:34:59.390Z,76.22
2023-04-04T00:37:26.274Z,76.10
2023-04-04T00:39:53.163Z,76.04
2023-04-04T00:42:20.164Z,76.06
2023-04-04T00:44:47.056Z,75.94
2023-04-04T00:47:14.301Z,76.23
2023-04-04T00:49:41.408Z,76.20
2023-04-04T00:52:08.356Z,76.15
2023-04-04T00:54:36.096Z,76.41
2023-04-04T00:57:05.633Z,76.40
2023-04-04T00:59:33.261Z,76.31
2023-04-04T01:02:00.980Z,76.42
2023-04-04T01:04:31.828Z,76.82
2023-04-04T01:06:59.931Z,76.89
2023-04-04T01:09:28.125Z,77.55
2023-04-04T01:11:57.090Z,77.05
2023-04-04T01:14:24.342Z,77.14
2023-04-04T01:16:51.991Z,77.22
2023-04-04T01:19:37.289Z,77.25
2023-04-04T01:22:06.348Z,77.54
2023-04-04T01:24:34.951Z,77.63
2023-04-04T01:27:02.292Z,78.10
2023-04-04T01:29:29.332Z,77.90
2023-04-04T01:32:28.564Z,78.12
2023-04-04T01:35:31.648Z,78.35
2023-04-04T01:38:16.087Z,78.48
2023-04-04T01:40:50.281Z,78.69
2023-04-04T01:43:17.890Z,78.84
2023-04-04T01:45:45.220Z,79.31
2023-04-04T01:48:12.367Z,79.45
2023-04-04T01:50:39.709Z,79.42
2023-04-04T01:53:06.879Z,79.31
2023-04-04T01:55:33.795Z,79.30
2023-04-04T01:58:00.712Z,79.57
2023-04-04T02:00:27.904Z,79.84
2023-04-04T02:02:54.820Z,80.01
2023-04-04T02:05:21.772Z,80.35
2023-04-04T02:07:52.301Z,80.34
2023-04-04T02:10:19.268Z,80.49
2023-04-04T02:12:47.098Z,80.29
2023-04-04T02:15:14.099Z,80.56
2023-04-04T02:17:41.664Z,80.82
2023-04-04T02:20:08.996Z,81.01
2023-04-04T02:22:36.038Z,81.07
2023-04-04T02:25:03.117Z,80.80
2023-04-04T02:27:30.157Z,81.49
2023-04-04T02:29:57.112Z,81.17
2023-04-04T02:32:24.759Z,81.52
2023-04-04T02:34:52.010Z,81.64
2023-04-04T02:37:18.912Z,81.83
2023-04-04T02:39:45.927Z,81.72
2023-04-04T02:42:12.779Z,81.46
2023-04-04T02:44:39.683Z,82.04
2023-04-04T02:47:07.595Z,82.06
2023-04-04T02:49:34.594Z,81.97
2023-04-04T02:52:01.596Z,82.44
2023-04-04T02:54:28.537Z,82.25
2023-04-04T02:56:56.655Z,82.43
2023-04-04T02:59:23.726Z,83.16
2023-04-04T03:01:50.730Z,83.35
2023-04-04T03:04:19.719Z,83.26
2023-04-04T03:06:48.736Z,83.53
2023-04-04T03:09:16.331Z,83.61
2023-04-04T03:11:43.404Z,83.47
2023-04-04T03:14:10.324Z,84.05
2023-04-04T03:16:37.730Z,83.24
2023-04-04T03:19:05.011Z,83.70
2023-04-04T03:21:32.181Z,84.43
2023-04-04T03:23:59.056Z,83.91
2023-04-04T03:26:28.475Z,85.09
2023-04-04T03:28:55.709Z,85.18
2023-04-04T03:31:22.773Z,85.33
2023-04-04T03:33:49.684Z,85.25
2023-04-04T03:36:17.226Z,84.65
2023-04-04T03:38:44.159Z,84.66
2023-04-04T03:41:11.447Z,84.04
2023-04-04T03:43:38.507Z,83.72
2023-04-04T03:46:07.480Z,84.34
2023-04-04T03:48:34.938Z,86.25
2023-04-04T03:51:05.223Z,85.74
2023-04-04T03:53:32.520Z,84.75
2023-04-04T03:56:00.255Z,85.06
2023-04-04T03:58:29.113Z,85.83
2023-04-04T04:00:56.324Z,86.50
2023-04-04T04:03:23.340Z,86.98
2023-04-04T04:05:50.265Z,86.96
2023-04-04T04:08:17.517Z,86.50
2023-04-04T04:10:44.833Z,87.54
2023-04-04T04:13:11.740Z,87.17
2023-04-04T04:15:38.723Z,87.00
2023-04-04T04:18:05.964Z,87.44
2023-04-04T04:20:32.854Z,87.62
2023-04-04T04:22:59.803Z,87.82
2023-04-04T04:25:26.770Z,87.21
2023-04-04T04:27:57.559Z,87.44
2023-04-04T04:30:24.731Z,88.13
2023-04-04T04:32:51.688Z,88.76
2023-04-04T04:35:18.596Z,87.60
2023-04-04T04:37:45.931Z,88.58
2023-04-04T04:40:14.540Z,88.35
2023-04-04T04:42:46.637Z,89.47
2023-04-04T04:45:14.222Z,88.65
2023-04-04T04:47:41.243Z,88.47
2023-04-04T04:50:08.725Z,89.60
2023-04-04T04:52:39.330Z,88.96
2023-04-04T04:55:07.254Z,90.20
2023-04-04T04:57:34.649Z,91.52
2023-04-04T05:00:02.185Z,90.19
2023-04-04T05:02:29.509Z,91.04
2023-04-04T05:04:56.879Z,90.92
2023-04-04T05:07:23.966Z,90.49
2023-04-04T05:09:51.697Z,90.73
2023-04-04T05:12:19.462Z,89.81
2023-04-04T05:14:46.419Z,90.14
2023-04-04T05:17:13.431Z,90.26
2023-04-04T05:19:40.361Z,91.10
2023-04-04T05:22:08.056Z,90.36
2023-04-04T05:24:35.044Z,89.62
2023-04-04T05:27:01.962Z,90.63
2023-04-04T05:29:29.453Z,89.82
2023-04-04T05:31:56.679Z,90.64
2023-04-04T05:34:23.603Z,90.37
2023-04-04T05:36:50.907Z,90.78
2023-04-04T05:39:17.815Z,91.38
2023-04-04T05:41:44.930Z,91.53
2023-04-04T05:44:12.652Z,91.90
2023-04-04T05:46:39.618Z,92.13
2023-04-04T05:49:06.741Z,92.18
2023-04-04T05:51:33.732Z,91.86
2023-04-04T05:54:00.837Z,91.07
2023-04-04T05:56:27.795Z,91.19
2023-04-04T05:58:54.750Z,92.44
2023-04-04T06:01:21.620Z,92.16
2023-04-04T06:03:48.682Z,93.04
2023-04-04T06:06:16.151Z,92.66
2023-04-04T06:08:53.150Z,91.89
2023-04-04T06:11:23.306Z,91.67
2023-04-04T06:13:51.658Z,91.61
2023-04-04T06:16:18.975Z,91.40
2023-04-04T06:18:46.088Z,90.96
2023-04-04T06:21:13.741Z,91.16
2023-04-04T06:23:41.242Z,91.06
2023-04-04T06:26:11.349Z,90.85
2023-04-04T06:28:38.249Z,91.31
2023-04-04T06:31:09.049Z,91.21
2023-04-04T06:33:36.159Z,91.26
2023-04-04T06:36:03.122Z,91.24
2023-04-04T06:38:30.969Z,91.02
2023-04-04T06:40:57.958Z,90.60
2023-04-04T06:43:25.403Z,90.34
2023-04-04T06:45:52.614Z,89.98
2023-04-04T06:48:19.551Z,90.33
2023-04-04T06:50:46.484Z,89.81
2023-04-04T06:53:15.057Z,90.32
2023-04-04T06:55:42.008Z,89.11
2023-04-04T06:58:09.040Z,88.74
2023-04-04T07:00:36.442Z,88.54
2023-04-04T07:03:03.834Z,87.03
2023-04-04T07:05:32.425Z,86.95
2023-04-04T07:07:59.398Z,86.57
2023-04-04T07:10:27.363Z,86.59
2023-04-04T07:12:54.267Z,86.16
2023-04-04T07:15:21.554Z,86.21
2023-04-04T07:17:48.497Z,85.78
2023-04-04T07:20:15.891Z,86.31
2023-04-04T07:22:44.623Z,86.06
2023-04-04T07:25:13.686Z,85.46
2023-04-04T07:27:43.385Z,84.62
2023-04-04T07:30:12.048Z,85.06
2023-04-04T07:32:39.539Z,84.86
2023-04-04T07:35:08.285Z,84.75
2023-04-04T07:37:38.445Z,84.00
2023-04-04T07:40:09.744Z,83.19
2023-04-04T07:42:38.244Z,82.48
2023-04-04T07:45:05.912Z,80.70
2023-04-04T07:47:32.825Z,80.20
2023-04-04T07:49:59.695Z,78.58
2023-04-04T07:52:26.948Z,77.44
2023-04-04T07:54:54.406Z,75.59
2023-04-04T07:57:21.654Z,74.52
2023-04-04T07:59:48.546Z,72.59
2023-04-04T08:02:15.484Z,71.20
2023-04-04T08:04:42.699Z,70.46
2023-04-04T08:07:09.617Z,69.55
2023-04-04T08:09:36.730Z,68.53
2023-04-04T08:12:05.808Z,67.30
2023-04-04T08:14:33.707Z,66.53
2023-04-04T08:17:01.628Z,65.87
2023-04-04T08:19:28.532Z,65.03
2023-04-04T08:21:56.120Z,63.69
2023-04-04T08:24:23.386Z,62.13
2023-04-04T08:26:58.313Z,61.66
2023-04-04T08:29:33.138Z,61.28
2023-04-04T08:32:00.936Z,60.89
2023-04-04T08:34:28.944Z,61.35
2023-04-04T08:36:56.733Z,61.03
2023-04-04T08:39:24.212Z,59.44
2023-04-04T08:42:05.821Z,59.33
2023-04-04T08:44:35.166Z,59.77
2023-04-04T08:47:07.922Z,59.31
2023-04-04T08:49:40.025Z,58.49
2023-04-04T08:52:09.272Z,58.80
2023-04-04T08:54:39.568Z,59.31
2023-04-04T08:57:08.657Z,58.83
2023-04-04T08:59:35.999Z,58.67
2023-04-04T09:02:09.034Z,58.05
2023-04-04T09:04:36.748Z,58.66
2023-04-04T09:07:05.884Z,58.83
2023-04-04T09:09:34.460Z,59.49
2023-04-04T09:12:02.832Z,59.44
2023-04-04T09:14:37.498Z,59.46
2023-04-04T09:17:04.443Z,59.37
2023-04-04T09:19:32.171Z,59.51
2023-04-04T09:21:59.060Z,56.98
2023-04-04T09:24:39.649Z,56.79
2023-04-04T09:27:12.693Z,57.53
2023-04-04T09:29:41.803Z,57.72
2023-04-04T09:32:23.162Z,57.20
2023-04-04T09:34:50.825Z,57.28
2023-04-04T09:37:19.286Z,56.98
2023-04-04T09:39:46.934Z,56.03
2023-04-04T09:42:15.528Z,55.37
2023-04-04T09:44:42.614Z,55.92
2023-04-04T09:47:31.150Z,55.69
2023-04-04T09:50:04.726Z,55.60
2023-04-04T09:52:36.220Z,53.73
2023-04-04T09:55:06.004Z,54.15
2023-04-04T09:57:36.292Z,54.13
2023-04-04T10:00:09.697Z,54.35
2023-04-04T10:02:49.544Z,53.78
2023-04-04T10:05:17.230Z,53.26
2023-04-04T10:07:45.084Z,53.83
2023-04-04T10:10:12.421Z,53.86
2023-04-04T10:12:39.471Z,54.28
2023-04-04T10:15:07.202Z,54.42
2023-04-04T10:17:42.341Z,52.22
2023-04-04T10:20:10.811Z,53.45
2023-04-04T10:22:39.943Z,53.26
2023-04-04T10:25:08.176Z,52.71
2023-04-04T10:27:36.052Z,51.05
2023-04-04T10:30:03.602Z,50.87
2023-04-04T10:33:00.215Z,50.68
2023-04-04T10:35:28.673Z,51.15
2023-04-04T10:38:00.776Z,50.92
2023-04-04T10:40:38.187Z,49.43
2023-04-04T10:43:09.521Z,49.82
2023-04-04T10:45:40.541Z,49.52
2023-04-04T10:48:10.518Z,48.60
2023-04-04T10:50:39.543Z,48.26
2023-04-04T10:53:08.025Z,49.04
2023-04-04T10:55:37.621Z,48.66
2023-04-04T10:58:06.440Z,48.78
2023-04-04T11:00:33.613Z,48.25
2023-04-04T11:03:02.702Z,47.43
2023-04-04T11:05:33.677Z,46.98
2023-04-04T11:08:14.369Z,47.16
2023-04-04T11:10:48.019Z,47.25
2023-04-04T11:13:25.465Z,47.33
2023-04-04T11:16:01.169Z,47.09
2023-04-04T11:18:43.512Z,47.23
2023-04-04T11:21:24.276Z,47.42
2023-04-04T11:23:54.262Z,47.12
2023-04-04T11:26:30.265Z,46.43
2023-04-04T11:29:05.331Z,46.43
2023-04-04T11:31:40.748Z,46.67
2023-04-04T11:34:10.320Z,47.08
2023-04-04T11:36:37.402Z,46.76
2023-04-04T11:39:06.319Z,46.16
2023-04-04T11:41:54.641Z,45.82
2023-04-04T11:44:33.674Z,45.45
2023-04-04T11:47:21.639Z,45.50
2023-04-04T11:49:50.036Z,44.80
2023-04-04T11:52:18.257Z,45.12
2023-04-04T11:54:47.899Z,44.82
2023-04-04T11:57:19.983Z,44.52
2023-04-04T11:59:49.836Z,45.01
2023-04-04T12:02:34.552Z,44.65
2023-04-04T12:05:02.022Z,44.52
2023-04-04T12:07:32.063Z,44.19
2023-04-04T12:09:59.645Z,42.63
2023-04-04T12:12:28.584Z,41.90
2023-04-04T12:15:03.436Z,42.28
2023-04-04T12:17:43.824Z,42.84
2023-04-04T12:20:11.817Z,42.76
2023-04-04T12:22:39.958Z,41.94
2023-04-04T12:25:07.815Z,42.51
2023-04-04T12:27:35.220Z,42.86
2023-04-04T12:30:04.413Z,42.14
2023-04-04T12:32:32.414Z,42.31
2023-04-04T12:35:03.935Z,42.32
2023-04-04T12:37:31.164Z,41.88
2023-04-04T12:39:58.905Z,41.90
2023-04-04T12:42:26.595Z,42.47
2023-04-04T12:44:54.793Z,41.50
2023-04-04T12:47:24.537Z,40.83
2023-04-04T12:49:57.678Z,41.28
2023-04-04T12:52:33.424Z,41.86
2023-04-04T12:55:11.269Z,41.60
2023-04-04T12:57:40.296Z,40.96
2023-04-04T13:00:09.592Z,40.88
2023-04-04T13:02:44.376Z,41.31
2023-04-04T13:05:11.682Z,40.17
2023-04-04T13:07:43.863Z,39.79
2023-04-04T13:10:17.164Z,39.70
2023-04-04T13:13:00.752Z,39.91
2023-04-04T13:15:51.640Z,40.06
2023-04-04T13:18:23.012Z,40.21
2023-04-04T13:20:52.126Z,40.10
2023-04-04T13:23:20.588Z,39.57
2023-04-04T13:25:47.928Z,39.34
2023-04-04T13:28:15.408Z,38.69
2023-04-04T13:30:47.104Z,38.84
2023-04-04T13:33:14.116Z,38.71
2023-04-04T13:35:44.517Z,37.51
2023-04-04T13:38:12.548Z,38.22
2023-04-04T13:40:39.986Z,38.49
2023-04-04T13:43:07.141Z,38.55
2023-04-04T13:45:35.450Z,38.49
2023-04-04T13:48:03.178Z,38.43
2023-04-04T13:50:33.092Z,38.67
2023-04-04T13:52:59.969Z,38.87
2023-04-04T13:55:28.083Z,38.88
2023-04-04T13:57:55.070Z,38.35
2023-04-04T14:00:22.792Z,38.40
2023-04-04T14:02:53.645Z,38.50
2023-04-04T14:05:23.134Z,38.75
2023-04-04T14:07:50.483Z,38.07
2023-04-04T14:10:17.428Z,38.37
2023-04-04T14:12:44.419Z,38.58
2023-04-04T14:15:12.550Z,38.25
2023-04-04T14:17:39.842Z,38.45
2023-04-04T14:20:08.139Z,37.08
2023-04-04T14:22:35.096Z,37.76
2023-04-04T14:25:02.386Z,37.94
2023-04-04T14:27:29.258Z,37.43
2023-04-04T14:29:56.124Z,36.79
2023-04-04T14:32:23.200Z,37.61
2023-04-04T14:34:50.138Z,37.49
2023-04-04T14:37:17.864Z,36.68
2023-04-04T14:39:44.996Z,35.54
2023-04-04T14:42:11.859Z,36.65
2023-04-04T14:44:38.783Z,36.35
2023-04-04T14:47:05.928Z,36.47
2023-04-04T14:49:33.234Z,34.67
2023-04-04T14:52:00.163Z,35.50
2023-04-04T14:54:27.039Z,35.22
2023-04-04T14:56:53.899Z,36.35
2023-04-04T14:59:20.870Z,35.08
2023-04-04T15:01:47.852Z,35.50
2023-04-04T15:04:14.839Z,33.50
2023-04-04T15:06:41.760Z,34.56
2023-04-04T15:09:09.833Z,34.88
2023-04-04T15:11:36.994Z,34.80
2023-04-04T15:14:04.408Z,35.85
2023-04-04T15:16:33.563Z,34.94
2023-04-04T15:19:01.117Z,35.19
2023-04-04T15:21:28.753Z,35.70
2023-04-04T15:23:55.746Z,35.50
2023-04-04T15:26:23.048Z,34.32
2023-04-04T15:28:49.964Z,35.05
2023-04-04T15:31:17.544Z,34.89
2023-04-04T15:33:44.723Z,35.58
2023-04-04T15:36:11.633Z,35.67
2023-04-04T15:38:39.142Z,36.19
2023-04-04T15:41:08.992Z,36.89
2023-04-04T15:43:38.956Z,36.11
2023-04-04T15:46:06.153Z,36.58
2023-04-04T15:48:34.763Z,36.43
2023-04-04T15:51:03.386Z,35.66
2023-04-04T15:53:33.679Z,36.20
2023-04-04T15:56:02.397Z,35.75
2023-04-04T15:58:29.331Z,36.20
2023-04-04T16:00:56.393Z,35.68
2023-04-04T16:03:24.934Z,36.29
2023-04-04T16:05:51.865Z,36.41
2023-04-04T16:08:19.066Z,36.42
2023-04-04T16:10:46.151Z,37.13
2023-04-04T16:13:13.918Z,36.71
2023-04-04T16:15:41.054Z,36.91
2023-04-04T16:18:09.014Z,36.62
2023-04-04T16:20:36.442Z,36.88
2023-04-04T16:23:03.428Z,37.02
2023-04-04T16:25:30.712Z,36.86
2023-04-04T16:27:57.632Z,35.58
2023-04-04T16:30:24.653Z,35.49
2023-04-04T16:32:52.077Z,35.64
2023-04-04T16:35:19.210Z,35.34
2023-04-04T16:37:46.229Z,35.47
2023-04-04T16:40:14.864Z,35.19
2023-04-04T16:42:42.644Z,35.11
2023-04-04T16:45:10.649Z,35.30
2023-04-04T16:47:38.000Z,35.42
2023-04-04T16:50:07.330Z,35.48
2023-04-04T16:52:34.217Z,35.93
2023-04-04T16:55:01.460Z,36.38
2023-04-04T16:57:28.373Z,35.78
2023-04-04T16:59:55.323Z,36.23
2023-04-04T17:02:22.576Z,35.47
2023-04-04T17:04:49.546Z,35.73
2023-04-04T17:07:16.593Z,35.86
2023-04-04T17:09:43.559Z,36.20
2023-04-04T17:12:10.520Z,36.53
2023-04-04T17:14:37.938Z,37.20
2023-04-04T17:17:05.776Z,37.23
2023-04-04T17:19:35.352Z,37.54
2023-04-04T17:22:02.588Z,37.74
2023-04-04T17:24:29.954Z,37.97
2023-04-04T17:26:58.481Z,37.76
2023-04-04T17:29:27.182Z,38.19
2023-04-04T17:31:55.784Z,39.20
2023-04-04T17:34:23.991Z,39.53
2023-04-04T17:36:52.737Z,39.74
2023-04-04T17:39:19.701Z,39.80
2023-04-04T17:41:49.990Z,39.87
2023-04-04T17:44:18.677Z,40.31
2023-04-04T17:46:46.941Z,40.52
2023-04-04T17:49:19.839Z,40.65
2023-04-04T17:51:50.852Z,41.20
2023-04-04T17:54:18.034Z,41.56
2023-04-04T17:56:46.391Z,42.06
2023-04-04T17:59:15.000Z,41.92
2023-04-04T18:01:42.374Z,42.43
2023-04-04T18:04:09.738Z,42.31
2023-04-04T18:06:40.264Z,42.70
2023-04-04T18:09:10.620Z,42.41
2023-04-04T18:11:39.156Z,42.77
2023-04-04T18:14:07.013Z,42.92
2023-04-04T18:16:39.817Z,43.20
2023-04-04T18:19:07.930Z,43.46
2023-04-04T18:21:34.894Z,43.65
2023-04-04T18:24:01.779Z,44.04
2023-04-04T18:26:29.184Z,44.19
2023-04-04T18:28:56.162Z,44.49
2023-04-04T18:31:23.217Z,44.40
2023-04-04T18:33:50.465Z,44.61
2023-04-04T18:36:17.382Z,44.87
2023-04-04T18:38:45.810Z,44.81
2023-04-04T18:41:12.767Z,45.27
2023-04-04T18:43:39.697Z,45.36
2023-04-04T18:46:07.179Z,45.64
2023-04-04T18:48:34.341Z,45.70
2023-04-04T18:51:02.480Z,45.81
2023-04-04T18:53:32.088Z,45.92
2023-04-04T18:55:59.802Z,45.69
2023-04-04T18:58:27.403Z,46.08
2023-04-04T19:00:56.206Z,46.04
2023-04-04T19:03:23.426Z,46.04
2023-04-04T19:05:51.116Z,46.37
2023-04-04T19:08:19.463Z,46.56
2023-04-04T19:10:49.977Z,46.53
2023-04-04T19:13:18.030Z,46.30
2023-04-04T19:15:44.979Z,46.59
2023-04-04T19:18:12.163Z,46.46
2023-04-04T19:20:42.227Z,46.91
2023-04-04T19:23:09.716Z,46.89
2023-04-04T19:25:36.599Z,47.16
2023-04-04T19:28:03.777Z,47.29
2023-04-04T19:30:47.885Z,47.18
2023-04-04T19:33:21.822Z,47.39
2023-04-04T19:36:00.515Z,47.55
2023-04-04T19:38:33.852Z,47.41
2023-04-04T19:41:08.563Z,47.34
2023-04-04T19:43:35.630Z,47.24
2023-04-04T19:46:09.854Z,47.25
2023-04-04T19:48:43.927Z,47.28
2023-04-04T19:51:22.781Z,47.54
2023-04-04T19:53:53.072Z,47.55
2023-04-04T19:56:23.469Z,47.36
2023-04-04T19:58:59.146Z,47.56
2023-04-04T20:01:29.543Z,47.98
2023-04-04T20:03:57.636Z,47.80
2023-04-04T20:06:31.743Z,48.00
2023-04-04T20:09:01.886Z,47.80
2023-04-04T20:11:32.188Z,48.08
2023-04-04T20:14:07.723Z,48.21
2023-04-04T20:16:34.898Z,48.18
2023-04-04T20:19:06.866Z,47.89
2023-04-04T20:21:36.126Z,48.07
2023-04-04T20:24:08.674Z,47.95
2023-04-04T20:26:39.573Z,48.29
2023-04-04T20:29:16.370Z,48.43
2023-04-04T20:31:47.824Z,48.71
2023-04-04T20:34:42.369Z,48.44
2023-04-04T20:37:26.541Z,48.72
2023-04-04T20:40:13.121Z,49.10
2023-04-04T20:42:41.334Z,49.20
2023-04-04T20:45:37.714Z,49.50
2023-04-04T20:48:07.767Z,49.78
2023-04-04T20:50:34.779Z,49.76
2023-04-04T20:53:06.965Z,49.95
2023-04-04T20:55:35.728Z,50.25
2023-04-04T20:58:09.752Z,50.36
2023-04-04T21:00:42.485Z,50.85
2023-04-04T21:03:34.386Z,51.10
2023-04-04T21:06:16.853Z,51.13
2023-04-04T21:08:51.586Z,51.35
2023-04-04T21:11:29.266Z,52.10
2023-04-04T21:13:57.778Z,52.18
2023-04-04T21:16:27.273Z,52.57
2023-04-04T21:19:01.047Z,52.95
2023-04-04T21:21:31.480Z,52.77
2023-04-04T21:24:01.786Z,53.34
2023-04-04T21:26:36.727Z,53.61
2023-04-04T21:29:25.726Z,53.52
2023-04-04T21:31:55.732Z,53.70
2023-04-04T21:34:26.346Z,53.98
2023-04-04T21:36:56.643Z,54.11
2023-04-04T21:39:29.910Z,54.14
2023-04-04T21:42:04.615Z,54.16
2023-04-04T21:44:33.154Z,54.43
2023-04-04T21:47:00.045Z,54.58
2023-04-04T21:49:27.461Z,54.56
2023-04-04T21:51:54.344Z,54.72
2023-04-04T21:54:21.237Z,54.83
2023-04-04T21:56:48.125Z,54.80
2023-04-04T21:59:15.124Z,55.28
2023-04-04T22:01:42.287Z,55.15
2023-04-04T22:04:09.279Z,55.22
2023-04-04T22:06:36.646Z,55.26
2023-04-04T22:09:04.453Z,55.26
2023-04-04T22:11:31.434Z,55.57
2023-04-04T22:14:04.511Z,55.69
2023-04-04T22:16:32.763Z,55.66
2023-04-04T22:19:01.592Z,55.86
2023-04-04T22:21:28.673Z,55.93
2023-04-04T22:24:02.545Z,56.40
2023-04-04T22:26:32.738Z,56.22
2023-04-04T22:29:03.097Z,56.28
2023-04-04T22:31:30.798Z,56.46
2023-04-04T22:33:58.366Z,56.74
2023-04-04T22:36:25.464Z,57.08
2023-04-04T22:38:57.828Z,57.11
2023-04-04T22:41:29.903Z,57.33
2023-04-04T22:43:58.304Z,57.75
2023-04-04T22:46:26.730Z,57.61
2023-04-04T22:49:05.813Z,57.91
2023-04-04T22:51:45.604Z,57.90
2023-04-04T22:54:17.027Z,58.32
2023-04-04T22:56:44.204Z,58.38
2023-04-04T22:59:11.802Z,58.80
2023-04-04T23:01:39.093Z,59.04
2023-04-04T23:04:06.438Z,58.84
2023-04-04T23:06:33.420Z,59.08
2023-04-04T23:09:01.868Z,59.27
2023-04-04T23:11:28.984Z,59.28
2023-04-04T23:13:57.265Z,59.40
2023-04-04T23:16:26.597Z,59.45
2023-04-04T23:18:53.616Z,59.81
2023-04-04T23:21:22.297Z,60.07
2023-04-04T23:23:49.307Z,59.93
2023-04-04T23:26:16.472Z,60.23
2023-04-04T23:28:43.364Z,60.31
2023-04-04T23:31:10.928Z,61.00
2023-04-04T23:33:38.189Z,60.68
2023-04-04T23:36:05.740Z,61.04
2023-04-04T23:38:32.675Z,61.15
2023-04-04T23:40:59.540Z,61.40
2023-04-04T23:43:26.753Z,61.72
2023-04-04T23:45:53.658Z,61.51
2023-04-04T23:48:21.589Z,61.81
2023-04-04T23:50:50.366Z,61.82
2023-04-04T23:53:17.290Z,62.40
2023-04-04T23:55:44.355Z,62.39
2023-04-04T23:58:11.268Z,62.59
